Time;durP1;ratioP1;P1;durP2;ratioP2;P2;SDS_P1;SDS_P2;PMS_P1;PMS_P2;Temp;Humidity;BMP_temperature;BMP_pressure;BME280_temperature;BME280_humidity;BME280_pressure;Samples;Min_cycle;Max_cycle;Signal;HPM_P1;HPM_P2
2021/04/03 00:01:03;;;;;;;2.5;1.2;;;;;;;;;;;;;
2021/04/03 00:03:28;;;;;;;1.5;1.3;;;;;;;;;;;;;
2021/04/03 00:05:54;;;;;;;4.8;1.8;;;;;;;;;;;;;
2021/04/03 00:08:21;;;;;;;1.7;1.6;;;;;;;;;;;;;
2021/04/03 00:10:47;;;;;;;2.1;1.6;;;;;;;;;;;;;
2021/04/03 00:13:12;;;;;;;5.2;1.8;;;;;;;;;;;;;
2021/04/03 00:15:45;;;;;;;2.2;1.7;;;;;;;;;;;;;
2021/04/03 00:18:10;;;;;;;3.3;2;;;;;;;;;;;;;
2021/04/03 00:20:35;;;;;;;1.9;1.3;;;;;;;;;;;;;
2021/04/03 00:23:04;;;;;;;2.7;1.7;;;;;;;;;;;;;
2021/04/03 00:25:27;;;;;;;1.2;1.1;;;;;;;;;;;;;
2021/04/03 00:27:53;;;;;;;2.3;1.5;;;;;;;;;;;;;
2021/04/03 00:30:18;;;;;;;3.3;1.9;;;;;;;;;;;;;
2021/04/03 00:32:43;;;;;;;2.4;1.4;;;;;;;;;;;;;
2021/04/03 00:35:08;;;;;;;2.1;1.4;;;;;;;;;;;;;
2021/04/03 00:37:33;;;;;;;1.7;1.5;;;;;;;;;;;;;
2021/04/03 00:39:58;;;;;;;2.1;1.6;;;;;;;;;;;;;
2021/04/03 00:42:24;;;;;;;2.3;1.3;;;;;;;;;;;;;
2021/04/03 00:44:49;;;;;;;3.4;2.1;;;;;;;;;;;;;
2021/04/03 00:47:16;;;;;;;3.6;2.1;;;;;;;;;;;;;
2021/04/03 00:49:41;;;;;;;3.1;2.1;;;;;;;;;;;;;
2021/04/03 00:52:07;;;;;;;2.7;1.5;;;;;;;;;;;;;
2021/04/03 00:54:32;;;;;;;2.8;1.7;;;;;;;;;;;;;
2021/04/03 00:56:58;;;;;;;3.6;2.2;;;;;;;;;;;;;
2021/04/03 00:59:23;;;;;;;2.5;1.8;;;;;;;;;;;;;
2021/04/03 01:01:49;;;;;;;2.6;1.6;;;;;;;;;;;;;
2021/04/03 01:04:14;;;;;;;2.7;1.7;;;;;;;;;;;;;
2021/04/03 01:06:40;;;;;;;2.4;1.4;;;;;;;;;;;;;
2021/04/03 01:09:06;;;;;;;2.5;1.5;;;;;;;;;;;;;
2021/04/03 01:11:34;;;;;;;2.1;1.1;;;;;;;;;;;;;
2021/04/03 01:13:59;;;;;;;3.2;1.5;;;;;;;;;;;;;
2021/04/03 01:16:29;;;;;;;4.6;1.9;;;;;;;;;;;;;
2021/04/03 01:18:54;;;;;;;2.8;1.9;;;;;;;;;;;;;
2021/04/03 01:21:19;;;;;;;2.5;1.6;;;;;;;;;;;;;
2021/04/03 01:23:45;;;;;;;2.2;1.9;;;;;;;;;;;;;
2021/04/03 01:26:10;;;;;;;5.2;1.7;;;;;;;;;;;;;
2021/04/03 01:28:35;;;;;;;2.4;1.8;;;;;;;;;;;;;
2021/04/03 01:31:02;;;;;;;3;2.1;;;;;;;;;;;;;
2021/04/03 01:33:27;;;;;;;3.4;1.9;;;;;;;;;;;;;
2021/04/03 01:35:52;;;;;;;2.6;1.7;;;;;;;;;;;;;
2021/04/03 01:38:17;;;;;;;3.4;1.7;;;;;;;;;;;;;
2021/04/03 01:40:42;;;;;;;3.1;1.8;;;;;;;;;;;;;
2021/04/03 01:43:09;;;;;;;1.9;1.7;;;;;;;;;;;;;
2021/04/03 01:45:34;;;;;;;1.8;1.5;;;;;;;;;;;;;
2021/04/03 01:47:59;;;;;;;3.8;2.5;;;;;;;;;;;;;
2021/04/03 01:50:24;;;;;;;2.9;1.6;;;;;;;;;;;;;
2021/04/03 01:52:51;;;;;;;3.8;2.7;;;;;;;;;;;;;
2021/04/03 01:55:16;;;;;;;3.7;2.4;;;;;;;;;;;;;
2021/04/03 01:57:41;;;;;;;3.5;2;;;;;;;;;;;;;
2021/04/03 02:00:07;;;;;;;3.2;1.8;;;;;;;;;;;;;
2021/04/03 02:02:33;;;;;;;3.9;2.5;;;;;;;;;;;;;
2021/04/03 02:04:58;;;;;;;3;2.1;;;;;;;;;;;;;
2021/04/03 02:07:24;;;;;;;4.5;2.5;;;;;;;;;;;;;
2021/04/03 02:09:49;;;;;;;2.3;2;;;;;;;;;;;;;
2021/04/03 02:12:17;;;;;;;3.2;2;;;;;;;;;;;;;
2021/04/03 02:14:42;;;;;;;4.8;2.2;;;;;;;;;;;;;
2021/04/03 02:17:11;;;;;;;3.1;2.1;;;;;;;;;;;;;
2021/04/03 02:19:38;;;;;;;4.8;2.2;;;;;;;;;;;;;
2021/04/03 02:22:03;;;;;;;2.4;1.9;;;;;;;;;;;;;
2021/04/03 02:24:30;;;;;;;3.8;1.9;;;;;;;;;;;;;
2021/04/03 02:26:55;;;;;;;2;1.8;;;;;;;;;;;;;
2021/04/03 02:29:22;;;;;;;5.9;1.7;;;;;;;;;;;;;
2021/04/03 02:31:45;;;;;;;3.3;2.1;;;;;;;;;;;;;
2021/04/03 02:34:13;;;;;;;2.7;2;;;;;;;;;;;;;
2021/04/03 02:36:38;;;;;;;4.2;1.8;;;;;;;;;;;;;
2021/04/03 02:39:03;;;;;;;2.6;2.1;;;;;;;;;;;;;
2021/04/03 02:41:28;;;;;;;1.6;1.5;;;;;;;;;;;;;
2021/04/03 02:43:53;;;;;;;2.2;1.7;;;;;;;;;;;;;
2021/04/03 02:46:18;;;;;;;2.1;1.9;;;;;;;;;;;;;
2021/04/03 02:48:44;;;;;;;2.8;1.9;;;;;;;;;;;;;
2021/04/03 02:51:09;;;;;;;2.1;1.6;;;;;;;;;;;;;
2021/04/03 02:53:34;;;;;;;1.6;1.4;;;;;;;;;;;;;
2021/04/03 02:56:00;;;;;;;2.3;1.8;;;;;;;;;;;;;
2021/04/03 02:58:25;;;;;;;2.8;2;;;;;;;;;;;;;
2021/04/03 03:00:51;;;;;;;4.2;1.9;;;;;;;;;;;;;
2021/04/03 03:03:16;;;;;;;1.9;1.7;;;;;;;;;;;;;
2021/04/03 03:05:42;;;;;;;2.7;1.9;;;;;;;;;;;;;
2021/04/03 03:08:07;;;;;;;2.5;1.7;;;;;;;;;;;;;
2021/04/03 03:10:35;;;;;;;1.5;1.4;;;;;;;;;;;;;
2021/04/03 03:13:00;;;;;;;2.7;1.9;;;;;;;;;;;;;
2021/04/03 03:15:33;;;;;;;2.2;1.7;;;;;;;;;;;;;
2021/04/03 03:17:59;;;;;;;3;2;;;;;;;;;;;;;
2021/04/03 03:20:24;;;;;;;1.7;1.5;;;;;;;;;;;;;
2021/04/03 03:22:49;;;;;;;5.2;1.9;;;;;;;;;;;;;
2021/04/03 03:25:14;;;;;;;3.3;2.2;;;;;;;;;;;;;
2021/04/03 03:27:41;;;;;;;3.6;2.7;;;;;;;;;;;;;
2021/04/03 03:30:06;;;;;;;2.5;2;;;;;;;;;;;;;
2021/04/03 03:32:31;;;;;;;3;2;;;;;;;;;;;;;
2021/04/03 03:34:57;;;;;;;4.1;2.5;;;;;;;;;;;;;
2021/04/03 03:37:22;;;;;;;9.5;2.4;;;;;;;;;;;;;
2021/04/03 03:39:47;;;;;;;2.6;2.2;;;;;;;;;;;;;
2021/04/03 03:42:13;;;;;;;3.7;2.4;;;;;;;;;;;;;
2021/04/03 03:44:38;;;;;;;4.6;3;;;;;;;;;;;;;
2021/04/03 03:47:05;;;;;;;2.8;2.2;;;;;;;;;;;;;
2021/04/03 03:49:30;;;;;;;3.1;2.2;;;;;;;;;;;;;
2021/04/03 03:51:56;;;;;;;3.9;2.4;;;;;;;;;;;;;
2021/04/03 03:54:21;;;;;;;3.9;2.7;;;;;;;;;;;;;
2021/04/03 03:56:47;;;;;;;5;3.1;;;;;;;;;;;;;
2021/04/03 03:59:12;;;;;;;4.3;2.7;;;;;;;;;;;;;
2021/04/03 04:02:30;;;;;;;4;2.2;;;;;;;5.31;74.18652;938.3102;;;;
2021/04/03 04:04:55;;;;;;;5.4;2.8;;;;;;;5.19;74.41309;938.3931;;;;
2021/04/03 04:07:24;;;;;;;7;2.5;;;;;;;5.24;74.27539;938.3538;;;;
2021/04/03 04:09:49;;;;;;;6.6;2.7;;;;;;;5.24;74.33105;938.3812;;;;
2021/04/03 04:12:19;;;;;;;2.5;2.1;;;;;;;5.1;74.31836;938.3691;;;;
2021/04/03 04:14:44;;;;;;;4.7;2.8;;;;;;;5.01;74.65234;938.3885;;;;
2021/04/03 04:17:09;;;;;;;4;2.5;;;;;;;4.96;74.62207;938.4254;;;;
2021/04/03 04:19:36;;;;;;;6.9;3.1;;;;;;;4.86;75.68457;938.449;;;;
2021/04/03 04:22:01;;;;;;;4.2;2.9;;;;;;;4.83;75.01465;938.4672;;;;
2021/04/03 04:24:29;;;;;;;5.6;2.8;;;;;;;4.81;75.61816;938.5405;;;;
2021/04/03 04:26:54;;;;;;;5.4;2.9;;;;;;;4.9;75.23242;938.5466;;;;
2021/04/03 04:29:22;;;;;;;8.1;2.7;;;;;;;4.93;74.99805;938.4315;;;;
2021/04/03 04:31:47;;;;;;;8.3;3;;;;;;;4.89;75.56836;938.4241;;;;
2021/04/03 04:34:14;;;;;;;7.3;3.2;;;;;;;4.98;75.10938;938.4804;;;;
2021/04/03 04:36:40;;;;;;;3.7;2.7;;;;;;;4.91;75.49121;938.4868;;;;
2021/04/03 04:39:06;;;;;;;6.7;2.9;;;;;;;5.1;74.87207;938.5128;;;;
2021/04/03 04:41:32;;;;;;;4.4;2.8;;;;;;;5.12;74.63672;938.4713;;;;
2021/04/03 04:43:59;;;;;;;5.4;2.3;;;;;;;5.16;74.49805;938.4892;;;;
2021/04/03 04:46:24;;;;;;;4.6;3.1;;;;;;;5.24;74.22949;938.4894;;;;
2021/04/03 04:48:51;;;;;;;3.8;2.3;;;;;;;5.23;74.1709;938.4994;;;;
2021/04/03 04:51:16;;;;;;;3.9;2.5;;;;;;;5.17;74.44531;938.5149;;;;
2021/04/03 04:53:42;;;;;;;4.7;2.8;;;;;;;5.27;74.08691;938.5715;;;;
2021/04/03 04:56:07;;;;;;;4.9;2.9;;;;;;;5.21;74.29199;938.5991;;;;
2021/04/03 04:58:35;;;;;;;5;2.8;;;;;;;5.14;74.67383;938.5825;;;;
2021/04/03 05:01:00;;;;;;;4;3;;;;;;;5.11;74.94141;938.6125;;;;
2021/04/03 05:03:28;;;;;;;4;2.9;;;;;;;5.1;74.87109;938.6752;;;;
2021/04/03 05:05:53;;;;;;;5.6;2.8;;;;;;;5.13;74.74219;938.6541;;;;
2021/04/03 05:08:22;;;;;;;5.3;3;;;;;;;5.29;74.31738;938.7192;;;;
2021/04/03 05:10:47;;;;;;;4.8;3.4;;;;;;;5.19;74.42383;938.798;;;;
2021/04/03 05:13:14;;;;;;;5.6;3.1;;;;;;;5.26;74.49316;938.8539;;;;
2021/04/03 05:15:46;;;;;;;5.2;2.8;;;;;;;5.11;75.1543;938.8721;;;;
2021/04/03 05:18:11;;;;;;;2.7;2.1;;;;;;;5.13;74.82031;938.8703;;;;
2021/04/03 05:20:36;;;;;;;4.3;3.1;;;;;;;5.19;74.41504;938.9338;;;;
2021/04/03 05:23:02;;;;;;;5.1;3.1;;;;;;;5.22;74.62207;939.0715;;;;
2021/04/03 05:25:27;;;;;;;9.3;3.6;;;;;;;5.21;74.59668;939.0869;;;;
2021/04/03 05:27:54;;;;;;;5.9;2.8;;;;;;;5.27;74.40625;939.111;;;;
2021/04/03 05:30:19;;;;;;;3.9;2.7;;;;;;;5.32;74.23242;939.1834;;;;
2021/04/03 05:32:44;;;;;;;7.5;3.1;;;;;;;5.35;74.09277;939.2776;;;;
2021/04/03 05:35:13;;;;;;;5;3.3;;;;;;;5.22;74.59863;939.3209;;;;
2021/04/03 05:37:41;;;;;;;8.9;3.2;;;;;;;5.18;74.59375;939.355;;;;
2021/04/03 05:40:06;;;;;;;4.8;2.5;;;;;;;5.14;74.98047;939.4634;;;;
2021/04/03 05:42:31;;;;;;;6;2.9;;;;;;;5.17;74.93945;939.4808;;;;
2021/04/03 05:44:56;;;;;;;4.9;2.5;;;;;;;5.2;74.62891;939.5883;;;;
2021/04/03 05:47:21;;;;;;;6.9;3.1;;;;;;;5.09;75.5332;939.6179;;;;
2021/04/03 05:49:47;;;;;;;5;2.5;;;;;;;5.12;75.15723;939.5685;;;;
2021/04/03 05:52:12;;;;;;;4.8;3;;;;;;;5.09;75.00488;939.6205;;;;
2021/04/03 05:54:37;;;;;;;3.7;2.9;;;;;;;5.04;75.27832;939.7151;;;;
2021/04/03 05:57:02;;;;;;;5.2;2.8;;;;;;;5.04;75.6709;939.6992;;;;
2021/04/03 05:59:28;;;;;;;4.9;3;;;;;;;5.07;75.61035;939.7689;;;;
2021/04/03 06:01:54;;;;;;;5.8;2.7;;;;;;;5.01;75.47461;939.7449;;;;
2021/04/03 06:04:19;;;;;;;6;2.8;;;;;;;4.95;75.79199;939.7601;;;;
2021/04/03 06:06:45;;;;;;;3.2;2.3;;;;;;;4.88;76.66992;939.8982;;;;
2021/04/03 06:09:11;;;;;;;3.8;2.4;;;;;;;5;76.11621;939.9084;;;;
2021/04/03 06:11:37;;;;;;;4.9;3.5;;;;;;;5.04;76.47168;939.9581;;;;
2021/04/03 06:14:02;;;;;;;4.3;2.7;;;;;;;5.19;76.00488;939.9615;;;;
2021/04/03 06:16:27;;;;;;;4;2.7;;;;;;;5.07;76.15137;939.986;;;;
2021/04/03 06:18:53;;;;;;;5.9;2.7;;;;;;;4.92;76.76758;939.9381;;;;
2021/04/03 06:21:20;;;;;;;6.1;2.7;;;;;;;4.91;76.65234;940.0544;;;;
2021/04/03 06:23:44;;;;;;;6.3;3.3;;;;;;;4.74;77.12793;940.0927;;;;
2021/04/03 06:26:13;;;;;;;4.3;2.7;;;;;;;4.68;77.09375;940.0378;;;;
2021/04/03 06:28:38;;;;;;;5;2.8;;;;;;;4.81;76.67871;940.0867;;;;
2021/04/03 06:31:03;;;;;;;4.3;3;;;;;;;4.87;76.28516;940.1407;;;;
2021/04/03 06:33:29;;;;;;;4.4;2.5;;;;;;;4.82;73.49219;940.1083;;;;
2021/04/03 06:35:54;;;;;;;4.9;2.4;;;;;;;4.56;73.68359;940.2352;;;;
2021/04/03 06:38:19;;;;;;;4.4;2.6;;;;;;;4.62;74.76465;940.2291;;;;
2021/04/03 06:40:44;;;;;;;2.7;2.2;;;;;;;4.64;74.39551;940.2178;;;;
2021/04/03 06:43:09;;;;;;;3;1.9;;;;;;;4.57;74.50879;940.1569;;;;
2021/04/03 06:45:35;;;;;;;2.4;2.1;;;;;;;4.56;72.84082;940.1638;;;;
2021/04/03 06:48:01;;;;;;;4.6;2.2;;;;;;;4.71;73.30664;940.2267;;;;
2021/04/03 06:50:26;;;;;;;4;2.3;;;;;;;4.76;72.97461;940.2195;;;;
2021/04/03 06:52:51;;;;;;;5;2.8;;;;;;;4.82;72.29785;940.21;;;;
2021/04/03 06:55:18;;;;;;;6.6;2.1;;;;;;;4.75;71.09277;940.2224;;;;
2021/04/03 06:57:43;;;;;;;3.3;2.5;;;;;;;4.76;70.9707;940.2418;;;;
2021/04/03 07:00:10;;;;;;;5.7;2.3;;;;;;;4.92;71.09961;940.2553;;;;
2021/04/03 07:02:35;;;;;;;4.3;2.3;;;;;;;4.69;71.80371;940.3056;;;;
2021/04/03 07:05:00;;;;;;;5;2.3;;;;;;;4.8;71.24707;940.3757;;;;
2021/04/03 07:07:28;;;;;;;4.9;2.3;;;;;;;4.79;71.8877;940.3247;;;;
2021/04/03 07:09:51;;;;;;;2.7;2.1;;;;;;;4.53;72.93457;940.3777;;;;
2021/04/03 07:12:20;;;;;;;3.6;2.1;;;;;;;4.55;72.88281;940.4304;;;;
2021/04/03 07:14:45;;;;;;;2.7;2.1;;;;;;;4.62;71.78027;940.4467;;;;
2021/04/03 07:17:14;;;;;;;5;2.3;;;;;;;4.63;72.05176;940.4817;;;;
2021/04/03 07:19:39;;;;;;;6.3;3.6;;;;;;;4.55;72.16309;940.5323;;;;
2021/04/03 07:22:05;;;;;;;3.6;2.2;;;;;;;4.61;72.40918;940.5331;;;;
2021/04/03 07:24:30;;;;;;;5.2;2.8;;;;;;;4.39;71.74219;940.5002;;;;
2021/04/03 07:26:55;;;;;;;2.7;1.9;;;;;;;4.41;72.43359;940.5298;;;;
2021/04/03 07:29:20;;;;;;;3.3;2.4;;;;;;;4.48;72.05957;940.5991;;;;
2021/04/03 07:31:46;;;;;;;3.9;2.1;;;;;;;4.65;71.59277;940.5061;;;;
2021/04/03 07:34:12;;;;;;;3;1.9;;;;;;;4.77;70.64551;940.5316;;;;
2021/04/03 07:36:38;;;;;;;1.9;1.6;;;;;;;4.83;69.52832;940.6152;;;;
2021/04/03 07:39:04;;;;;;;2.5;1.8;;;;;;;4.81;69.9541;940.5894;;;;
2021/04/03 07:41:29;;;;;;;4.5;1.9;;;;;;;4.95;69.64941;940.6028;;;;
2021/04/03 07:43:54;;;;;;;4.1;2.1;;;;;;;5.08;69.08398;940.6814;;;;
2021/04/03 07:46:19;;;;;;;2.8;1.9;;;;;;;5.01;68.69043;940.7456;;;;
2021/04/03 07:48:46;;;;;;;2.4;1.9;;;;;;;5.04;68.34473;940.673;;;;
2021/04/03 07:51:11;;;;;;;2.2;1.7;;;;;;;5.11;68.97559;940.711;;;;
2021/04/03 07:53:39;;;;;;;5.4;2.4;;;;;;;5.09;68.66699;940.707;;;;
2021/04/03 07:56:05;;;;;;;3.5;2.2;;;;;;;5.07;70.01855;940.7466;;;;
2021/04/03 07:58:31;;;;;;;3;1.5;;;;;;;5.24;69.62891;940.7117;;;;
2021/04/03 08:00:56;;;;;;;3;1.9;;;;;;;5.35;68.8125;940.6829;;;;
2021/04/03 08:03:21;;;;;;;3.9;2.1;;;;;;;5.32;68.76172;940.6716;;;;
2021/04/03 08:05:46;;;;;;;3.8;2.1;;;;;;;5.36;68.57715;940.6895;;;;
2021/04/03 08:08:11;;;;;;;2.4;2;;;;;;;5.46;68.1748;940.738;;;;
2021/04/03 08:10:37;;;;;;;3.3;2.1;;;;;;;5.56;67.46973;940.7271;;;;
2021/04/03 08:13:02;;;;;;;3.3;2.4;;;;;;;5.59;67.48535;940.6909;;;;
2021/04/03 08:15:35;;;;;;;4.4;1.7;;;;;;;5.3;67.16895;940.8195;;;;
2021/04/03 08:18:01;;;;;;;1.5;1.4;;;;;;;5.34;66.99414;940.8414;;;;
2021/04/03 08:20:26;;;;;;;2.1;1.6;;;;;;;5.4;67.57813;940.8139;;;;
2021/04/03 08:22:52;;;;;;;2.3;1.8;;;;;;;5.5;66.10449;940.8459;;;;
2021/04/03 08:25:19;;;;;;;2.4;1.7;;;;;;;5.38;66.5166;940.8608;;;;
2021/04/03 08:27:44;;;;;;;4.1;2.1;;;;;;;5.4;66.43945;940.7966;;;;
2021/04/03 08:30:23;;;;;;;5.1;2;;;;;;;5.27;67.0752;940.832;;;;
2021/04/03 08:32:37;;;;;;;2.6;1.8;;;;;;;5.36;66.72656;940.8625;;;;
2021/04/03 08:35:02;;;;;;;2.9;1.5;;;;;;;5.45;65.86035;940.8997;;;;
2021/04/03 08:37:27;;;;;;;1.8;1.4;;;;;;;5.63;65.86621;940.9658;;;;
2021/04/03 08:39:52;;;;;;;3;1.9;;;;;;;5.51;66.04004;940.9726;;;;
2021/04/03 08:42:17;;;;;;;3.3;1.9;;;;;;;5.41;67.94238;941.0286;;;;
2021/04/03 08:44:45;;;;;;;3.1;1.4;;;;;;;5.23;67.87793;940.9717;;;;
2021/04/03 08:47:09;;;;;;;2.3;1.5;;;;;;;5.09;68.26172;941.0259;;;;
2021/04/03 08:49:36;;;;;;;3.3;1.7;;;;;;;5.02;67.37207;941.074;;;;
2021/04/03 08:52:01;;;;;;;1.9;1.2;;;;;;;5.02;66.81934;941.0378;;;;
2021/04/03 08:54:26;;;;;;;7.4;1.9;;;;;;;4.98;66.79102;941.0683;;;;
2021/04/03 08:56:53;;;;;;;3.7;1.8;;;;;;;5.15;66.34473;941.017;;;;
2021/04/03 08:59:18;;;;;;;4.8;2.2;;;;;;;5.09;67.1582;941.0869;;;;
2021/04/03 09:01:44;;;;;;;1.4;1.3;;;;;;;5.2;65.86816;941.0645;;;;
2021/04/03 09:04:08;;;;;;;2.6;1.4;;;;;;;5.06;66.83789;941.1142;;;;
2021/04/03 09:06:33;;;;;;;3.8;2.1;;;;;;;5.1;66.43945;941.1147;;;;
2021/04/03 09:08:59;;;;;;;3.2;1.6;;;;;;;4.94;66.53613;941.123;;;;
2021/04/03 09:11:24;;;;;;;2.4;1.7;;;;;;;4.96;66.25879;941.1286;;;;
2021/04/03 09:13:50;;;;;;;2.2;1.7;;;;;;;5.15;65.13965;941.1269;;;;
2021/04/03 09:16:15;;;;;;;2.3;1.7;;;;;;;5.16;66.78613;941.2416;;;;
2021/04/03 09:18:40;;;;;;;6.4;1.9;;;;;;;5.16;64.53027;941.1728;;;;
2021/04/03 09:21:05;;;;;;;1.9;1.4;;;;;;;5.12;64.28809;941.1186;;;;
2021/04/03 09:23:43;;;;;;;2.4;1.3;;;;;;;5.09;63.66309;941.1531;;;;
2021/04/03 09:26:13;;;;;;;1.8;1.6;;;;;;;5.11;63.94727;941.2317;;;;
2021/04/03 09:28:38;;;;;;;2;1.6;;;;;;;5.15;63.0752;941.2254;;;;
2021/04/03 09:31:03;;;;;;;4.2;1.1;;;;;;;5.18;61.87207;941.1924;;;;
2021/04/03 09:33:30;;;;;;;2.1;1.3;;;;;;;5.13;62.14746;941.2011;;;;
2021/04/03 09:35:54;;;;;;;2.5;1.4;;;;;;;5.12;62.20117;941.2589;;;;
2021/04/03 09:38:23;;;;;;;1.2;1.1;;;;;;;5.06;61.73145;941.298;;;;
2021/04/03 09:40:46;;;;;;;1.9;1;;;;;;;5.15;60.56152;941.3084;;;;
2021/04/03 09:43:11;;;;;;;6.8;1.7;;;;;;;5.17;62.33301;941.3334;;;;
2021/04/03 09:45:37;;;;;;;1.8;1.3;;;;;;;5.33;59.96582;941.3472;;;;
2021/04/03 09:48:03;;;;;;;2;1.7;;;;;;;5.41;61.04883;941.4078;;;;
2021/04/03 09:50:28;;;;;;;1.9;1.5;;;;;;;5.51;61.83008;941.3936;;;;
2021/04/03 09:52:55;;;;;;;1.3;1.2;;;;;;;5.52;62.46387;941.3901;;;;
2021/04/03 09:55:20;;;;;;;1.9;1.4;;;;;;;5.51;59.87793;941.3762;;;;
2021/04/03 09:57:46;;;;;;;2.8;1.4;;;;;;;5.43;59.49414;941.4266;;;;
2021/04/03 10:00:11;;;;;;;2.3;1.2;;;;;;;5.46;60.80859;941.4648;;;;
2021/04/03 10:02:37;;;;;;;2.1;1.3;;;;;;;5.52;61.1875;941.4405;;;;
2021/04/03 10:05:03;;;;;;;1.5;0.9;;;;;;;5.44;60.54492;941.3764;;;;
2021/04/03 10:07:28;;;;;;;1.4;0.9;;;;;;;5.36;59.87891;941.4434;;;;
2021/04/03 10:09:53;;;;;;;2.4;1.7;;;;;;;5.25;62.01855;941.4611;;;;
2021/04/03 10:12:20;;;;;;;2.8;1.4;;;;;;;5.34;60.51855;941.4895;;;;
2021/04/03 10:14:45;;;;;;;2.4;0.9;;;;;;;5.33;59.68359;941.5178;;;;
2021/04/03 10:17:13;;;;;;;1.3;1.2;;;;;;;5.44;60.19531;941.4807;;;;
2021/04/03 10:19:38;;;;;;;1.2;0.9;;;;;;;5.44;59.77734;941.4197;;;;
2021/04/03 10:22:03;;;;;;;2.1;1.1;;;;;;;5.37;60.71484;941.5891;;;;
2021/04/03 10:24:28;;;;;;;1.1;0.9;;;;;;;5.36;59.96973;941.4673;;;;
2021/04/03 10:26:55;;;;;;;1.2;1.1;;;;;;;5.3;60.26465;941.5781;;;;
2021/04/03 10:29:20;;;;;;;2.2;1.3;;;;;;;5.33;60.47363;941.5862;;;;
2021/04/03 10:31:46;;;;;;;1.5;1.1;;;;;;;5.29;61.00781;941.5652;;;;
2021/04/03 10:34:11;;;;;;;1.5;1;;;;;;;5.56;60.08887;941.6711;;;;
2021/04/03 10:36:38;;;;;;;1.6;1.1;;;;;;;5.66;61.21875;941.5955;;;;
2021/04/03 10:39:03;;;;;;;4.4;1.5;;;;;;;5.67;59.44824;941.5894;;;;
2021/04/03 10:41:29;;;;;;;1.1;0.9;;;;;;;5.78;57.03613;941.6005;;;;
2021/04/03 10:43:54;;;;;;;1.9;1.1;;;;;;;5.72;57.38965;941.6432;;;;
2021/04/03 10:46:21;;;;;;;1.8;1.1;;;;;;;5.87;56.66406;941.6929;;;;
2021/04/03 10:48:46;;;;;;;1.2;0.9;;;;;;;6.03;56.1543;941.674;;;;
2021/04/03 10:51:12;;;;;;;1;0.9;;;;;;;6.03;55.94043;941.7073;;;;
2021/04/03 10:53:37;;;;;;;4.4;1.1;;;;;;;5.98;58.14648;941.6917;;;;
2021/04/03 10:56:03;;;;;;;3;1.1;;;;;;;6.13;57.18359;941.73;;;;
2021/04/03 10:58:28;;;;;;;0.8;0.8;;;;;;;6.16;55.84375;941.7145;;;;
2021/04/03 11:00:55;;;;;;;1.7;1.1;;;;;;;6.14;58.17969;941.6172;;;;
2021/04/03 11:03:20;;;;;;;1.9;1;;;;;;;6.15;57.52637;941.704;;;;
2021/04/03 11:05:49;;;;;;;1.3;1;;;;;;;6.24;54.58789;941.6746;;;;
2021/04/03 11:08:14;;;;;;;1.1;1;;;;;;;6.5;56.60156;941.7287;;;;
2021/04/03 11:10:40;;;;;;;3.9;1.1;;;;;;;6.57;54.53906;941.6644;;;;
2021/04/03 11:13:05;;;;;;;2.8;1.5;;;;;;;6.54;54.93066;941.71;;;;
2021/04/03 11:15:38;;;;;;;1.5;1.1;;;;;;;6.76;55.81934;941.7644;;;;
2021/04/03 11:18:03;;;;;;;1.8;1.3;;;;;;;6.92;52.7373;941.7352;;;;
2021/04/03 11:20:28;;;;;;;1.2;0.8;;;;;;;6.97;54.64746;941.7447;;;;
2021/04/03 11:22:58;;;;;;;1.1;1;;;;;;;6.93;54.97168;941.7926;;;;
2021/04/03 11:25:22;;;;;;;1.3;1.2;;;;;;;7.02;52.49023;941.7739;;;;
2021/04/03 11:27:47;;;;;;;1.2;1;;;;;;;7.11;54.42773;941.8098;;;;
2021/04/03 11:30:16;;;;;;;2.5;0.7;;;;;;;7.37;52.81641;941.7483;;;;
2021/04/03 11:32:38;;;;;;;1.4;1.1;;;;;;;7.66;52.44336;941.8166;;;;
2021/04/03 11:35:03;;;;;;;2.5;1.1;;;;;;;7.75;52.03516;941.8158;;;;
2021/04/03 11:37:28;;;;;;;1.5;1;;;;;;;7.7;52.62988;941.7788;;;;
2021/04/03 11:39:54;;;;;;;1.6;1.3;;;;;;;7.62;52.8125;941.7491;;;;
2021/04/03 11:42:19;;;;;;;1.8;1.2;;;;;;;7.45;53.22363;941.7537;;;;
2021/04/03 11:44:46;;;;;;;0.8;0.8;;;;;;;7.14;54.26074;941.7598;;;;
2021/04/03 11:47:11;;;;;;;1.6;1.1;;;;;;;7.32;54.22754;941.7858;;;;
2021/04/03 11:49:38;;;;;;;1.2;1;;;;;;;7.31;54.79199;941.8655;;;;
2021/04/03 11:52:03;;;;;;;1.3;1;;;;;;;7.14;55.25781;941.7314;;;;
2021/04/03 11:54:30;;;;;;;0.8;0.8;;;;;;;7.01;55.49121;941.8348;;;;
2021/04/03 11:56:57;;;;;;;1.6;1.3;;;;;;;7.13;54.97168;941.8411;;;;
2021/04/03 11:59:21;;;;;;;1.5;1;;;;;;;7.19;54.29004;941.8452;;;;
2021/04/03 12:01:46;;;;;;;1.1;1;;;;;;;7.13;54.66699;941.7913;;;;
2021/04/03 12:04:12;;;;;;;0.9;0.9;;;;;;;6.86;55.93555;941.8183;;;;
2021/04/03 12:06:37;;;;;;;1.5;0.9;;;;;;;6.92;55.93066;941.7755;;;;
2021/04/03 12:09:04;;;;;;;1.3;1.2;;;;;;;6.95;54.92578;941.8159;;;;
2021/04/03 12:11:29;;;;;;;2;1.4;;;;;;;6.95;55.52637;941.8365;;;;
2021/04/03 12:13:55;;;;;;;1.9;1.1;;;;;;;6.92;54.53809;941.7906;;;;
2021/04/03 12:16:20;;;;;;;1.4;1.2;;;;;;;6.95;55.89941;941.8191;;;;
2021/04/03 12:18:49;;;;;;;1.2;1;;;;;;;7.06;54.69336;941.8844;;;;
2021/04/03 12:21:11;;;;;;;1.7;1.1;;;;;;;7.07;54.7041;941.8253;;;;
2021/04/03 12:23:38;;;;;;;1.3;1.1;;;;;;;7.1;54.58398;941.8524;;;;
2021/04/03 12:26:03;;;;;;;1.3;1.2;;;;;;;6.98;53.97949;941.8239;;;;
2021/04/03 12:28:29;;;;;;;1.2;1;;;;;;;6.86;55.44824;941.7841;;;;
2021/04/03 12:30:54;;;;;;;1.9;1.3;;;;;;;6.98;54.83008;941.8105;;;;
2021/04/03 12:33:21;;;;;;;1;0.9;;;;;;;6.97;55.23535;941.7794;;;;
2021/04/03 12:35:46;;;;;;;1.4;1;;;;;;;7.04;54.87109;941.8093;;;;
2021/04/03 12:38:12;;;;;;;2.5;1.3;;;;;;;7.09;54.09668;941.8347;;;;
2021/04/03 12:40:37;;;;;;;1.5;1.3;;;;;;;7.11;54.78809;941.8167;;;;
2021/04/03 12:43:02;;;;;;;2.7;1.6;;;;;;;7.18;53.95898;941.7808;;;;
2021/04/03 12:45:27;;;;;;;2.6;1.2;;;;;;;7.1;53.83691;941.7668;;;;
2021/04/03 12:47:52;;;;;;;1.1;1;;;;;;;7.11;54.24609;941.7932;;;;
2021/04/03 12:50:19;;;;;;;1.2;1;;;;;;;7.02;54.86816;941.7659;;;;
2021/04/03 12:52:44;;;;;;;2.8;1;;;;;;;7.35;53.19922;941.7319;;;;
2021/04/03 12:55:10;;;;;;;1;0.9;;;;;;;7.62;52.22266;941.719;;;;
2021/04/03 12:57:35;;;;;;;1.9;1.4;;;;;;;7.67;50.90234;941.7551;;;;
2021/04/03 13:00:00;;;;;;;1.1;1;;;;;;;7.51;51.48438;941.7744;;;;
2021/04/03 13:02:25;;;;;;;1.6;1.1;;;;;;;7.46;52.90625;941.7128;;;;
2021/04/03 13:04:51;;;;;;;2.5;1.3;;;;;;;7.53;52.84668;941.7925;;;;
2021/04/03 13:07:16;;;;;;;1.7;1.1;;;;;;;7.65;52.15918;941.8378;;;;
2021/04/03 13:09:43;;;;;;;1.8;1.3;;;;;;;7.85;51.75195;941.733;;;;
2021/04/03 13:12:08;;;;;;;1.8;1.1;;;;;;;7.91;50.48828;941.8415;;;;
2021/04/03 13:14:33;;;;;;;1.3;1.2;;;;;;;8.04;50.74121;941.7356;;;;
2021/04/03 13:16:58;;;;;;;1.6;1.4;;;;;;;8.14;49.8457;941.7515;;;;
2021/04/03 13:19:23;;;;;;;5.7;1.2;;;;;;;8.16;49.64453;941.7972;;;;
2021/04/03 13:21:49;;;;;;;2.5;1.2;;;;;;;7.98;51.24512;941.791;;;;
2021/04/03 13:24:14;;;;;;;1.8;1.2;;;;;;;7.77;52.41211;941.8099;;;;
2021/04/03 13:26:40;;;;;;;1.3;0.9;;;;;;;7.87;51.1543;941.767;;;;
2021/04/03 13:29:05;;;;;;;1.3;1.1;;;;;;;7.74;51.88574;941.7101;;;;
2021/04/03 13:31:31;;;;;;;1.4;1.3;;;;;;;7.52;52.13184;941.7516;;;;
2021/04/03 13:33:56;;;;;;;3.1;1.1;;;;;;;7.44;52.73535;941.695;;;;
2021/04/03 13:36:21;;;;;;;3.2;1.4;;;;;;;7.28;54.50391;941.7719;;;;
2021/04/03 13:38:46;;;;;;;2.4;1.3;;;;;;;7.43;54.10449;941.7738;;;;
2021/04/03 13:41:14;;;;;;;1.9;1.4;;;;;;;7.43;54.19531;941.8167;;;;
2021/04/03 13:43:41;;;;;;;1.3;1.1;;;;;;;7.28;54.61719;941.7522;;;;
2021/04/03 13:46:06;;;;;;;4;1.5;;;;;;;7.24;54.31836;941.7083;;;;
2021/04/03 13:48:32;;;;;;;2.3;1.5;;;;;;;7.21;54.71191;941.7219;;;;
2021/04/03 13:51:02;;;;;;;2.4;1.2;;;;;;;7.22;55.58496;941.7165;;;;
2021/04/03 13:53:22;;;;;;;3.1;1.1;;;;;;;7.32;55.23535;941.7238;;;;
2021/04/03 13:55:50;;;;;;;2;1.6;;;;;;;7.17;55.46582;941.653;;;;
2021/04/03 13:58:14;;;;;;;4.3;1.8;;;;;;;7.06;56.3457;941.6902;;;;
2021/04/03 14:00:39;;;;;;;1.9;1.2;;;;;;;7.12;55.90039;941.6549;;;;
2021/04/03 14:03:04;;;;;;;2.3;1;;;;;;;7.38;55.2666;941.6448;;;;
2021/04/03 14:05:33;;;;;;;1.7;1.3;;;;;;;7.41;54.83887;941.622;;;;
2021/04/03 14:07:58;;;;;;;1.7;1.2;;;;;;;7.49;53.71582;941.6359;;;;
2021/04/03 14:10:23;;;;;;;1.1;1;;;;;;;7.59;53.7832;941.5966;;;;
2021/04/03 14:12:48;;;;;;;2.2;1.6;;;;;;;7.78;53.53613;941.605;;;;
2021/04/03 14:15:14;;;;;;;4;1.3;;;;;;;7.7;53.37988;941.5419;;;;
2021/04/03 14:17:41;;;;;;;1.6;1.5;;;;;;;7.92;52.89551;941.524;;;;
2021/04/03 14:20:07;;;;;;;1.4;1.2;;;;;;;8.06;52.76465;941.5745;;;;
2021/04/03 14:22:32;;;;;;;4.2;1.3;;;;;;;7.98;52.8584;941.4683;;;;
2021/04/03 14:24:57;;;;;;;1.2;1.1;;;;;;;8.02;52.9082;941.5608;;;;
2021/04/03 14:27:22;;;;;;;2;1.2;;;;;;;8.09;53.97168;941.5076;;;;
2021/04/03 14:29:48;;;;;;;2.9;1.7;;;;;;;8;52.23535;941.5186;;;;
2021/04/03 14:32:13;;;;;;;2.1;1.5;;;;;;;8.06;53.00293;941.4903;;;;
2021/04/03 14:34:39;;;;;;;2.9;1.7;;;;;;;8.25;53.01563;941.4507;;;;
2021/04/03 14:37:04;;;;;;;2.7;1.9;;;;;;;8.41;52.8877;941.4886;;;;
2021/04/03 14:39:29;;;;;;;1.4;1.3;;;;;;;8.46;50.90527;941.4472;;;;
2021/04/03 14:41:54;;;;;;;1.8;1.5;;;;;;;8.44;52.23242;941.53;;;;
2021/04/03 14:44:20;;;;;;;1.9;1.3;;;;;;;8.28;51.13477;941.4664;;;;
2021/04/03 14:46:45;;;;;;;3.1;1.2;;;;;;;8.52;50.87793;941.4907;;;;
2021/04/03 14:49:10;;;;;;;1.9;1.3;;;;;;;8.67;50.05469;941.4824;;;;
2021/04/03 14:51:37;;;;;;;2.4;1.3;;;;;;;8.97;49.22559;941.4745;;;;
2021/04/03 14:54:00;;;;;;;1.1;1;;;;;;;8.72;48.26465;941.427;;;;
2021/04/03 14:56:25;;;;;;;1.2;0.9;;;;;;;8.95;47.80078;941.4036;;;;
2021/04/03 14:58:50;;;;;;;5;1.7;;;;;;;8.87;47.74609;941.3638;;;;
2021/04/03 15:01:16;;;;;;;1.1;1;;;;;;;8.61;49.72949;941.4398;;;;
2021/04/03 15:03:45;;;;;;;4.1;1.1;;;;;;;8.47;48.66699;941.3792;;;;
2021/04/03 15:06:11;;;;;;;4.5;1.4;;;;;;;8.75;48.02832;941.3523;;;;
2021/04/03 15:08:36;;;;;;;2.9;1.4;;;;;;;8.64;48.84668;941.242;;;;
2021/04/03 15:11:03;;;;;;;1.6;1.1;;;;;;;8.96;47.79102;941.3499;;;;
2021/04/03 15:13:28;;;;;;;2.7;1.4;;;;;;;9.04;47.36719;941.3445;;;;
2021/04/03 15:15:52;;;;;;;1.5;1.2;;;;;;;8.93;47.82129;941.3427;;;;
2021/04/03 15:18:19;;;;;;;2.2;1.2;;;;;;;8.79;48.28223;941.3379;;;;
2021/04/03 15:20:44;;;;;;;2.2;1.3;;;;;;;8.67;47.91797;941.3203;;;;
2021/04/03 15:23:11;;;;;;;1.9;1;;;;;;;8.55;49.92676;941.3413;;;;
2021/04/03 15:25:36;;;;;;;0.9;0.8;;;;;;;8.79;49.06738;941.3395;;;;
2021/04/03 15:28:03;;;;;;;1;1;;;;;;;8.83;48.08398;941.3987;;;;
2021/04/03 15:30:30;;;;;;;1.9;1.3;;;;;;;8.73;49.10645;941.3858;;;;
2021/04/03 15:32:55;;;;;;;1.3;1.2;;;;;;;8.75;48.52832;941.3205;;;;
2021/04/03 15:35:20;;;;;;;1.3;1.2;;;;;;;8.78;48.04297;941.3131;;;;
2021/04/03 15:37:45;;;;;;;2.1;1.4;;;;;;;8.63;48.57227;941.3021;;;;
2021/04/03 15:40:12;;;;;;;1.1;1;;;;;;;8.28;48.89551;941.3022;;;;
2021/04/03 15:42:37;;;;;;;1.4;1.1;;;;;;;8.24;49.94824;941.3433;;;;